Terminal Aerodrome Forecast
Issued by NWS Glasgow, MT

Home | Current Version | Previous Version | Text Only | Print | Product List | Glossary On
Versions: 1 2 3 4 5 6 7 8 9 10 11 12 13
790
FTUS45 KGGW 232049 AAA
TAFGGW
TAF AMD
KGGW 232049Z 2321/2418 13005KT P6SM FEW030 SCT070 BKN120
     FM240800 VRB05KT P6SM BKN040=

USA.gov is the U.S. government's official web portal to all federal, state and local government web resources and services.